Time;durP1;ratioP1;P1;durP2;ratioP2;P2;SDS_P1;SDS_P2;PMS_P1;PMS_P2;Temp;Humidity;BMP_temperature;BMP_pressure;BME280_temperature;BME280_humidity;BME280_pressure;Samples;Min_cycle;Max_cycle;Signal;HPM_P1;HPM_P2
2022/01/06 00:00:08;;;;;;;11.07;3.05;;;5.20;99.90;;;;;;4160526;28;20060;-67
2022/01/06 00:02:09;;;;;;;;;;;5.20;99.90;;;;;;4162897;28;20055;-67
2022/01/06 00:04:09;;;;;;;17.83;3.72;;;5.30;99.90;;;;;;4160630;28;20279;-67
2022/01/06 00:06:10;;;;;;;12.85;3.45;;;5.20;99.90;;;;;;4161153;28;20037;-68
2022/01/06 00:08:11;;;;;;;11.75;3.92;;;5.20;99.90;;;;;;4160657;28;20051;-67
2022/01/06 00:10:13;;;;;;;16.55;3.50;;;5.20;99.90;;;;;;4159447;28;20092;-68
2022/01/06 00:12:16;;;;;;;;;;;5.20;99.90;;;;;;4161804;28;20069;-67
2022/01/06 00:14:34;;;;;;;13.63;3.85;;;5.20;99.90;;;;;;4161788;28;19916;-67
2022/01/06 00:23:39;;;;;;;15.10;3.20;;;5.10;99.90;;;;;;4160545;28;20041;-67
2022/01/06 00:25:40;;;;;;;9.23;3.20;;;5.10;99.90;;;;;;4159544;28;20095;-67
2022/01/06 00:27:40;;;;;;;10.23;3.08;;;5.10;99.90;;;;;;4161613;28;20034;-68
2022/01/06 00:29:41;;;;;;;14.63;3.50;;;5.10;99.90;;;;;;4161205;28;20475;-67
2022/01/06 00:31:42;;;;;;;15.30;4.05;;;5.10;99.90;;;;;;4159045;28;20503;-67
2022/01/06 00:33:43;;;;;;;21.73;4.00;;;5.10;99.90;;;;;;4159103;28;20033;-67
2022/01/06 00:35:43;;;;;;;12.68;3.05;;;5.10;99.90;;;;;;4160391;28;20045;-67
2022/01/06 00:37:44;;;;;;;15.13;3.70;;;5.00;99.90;;;;;;4161534;28;20125;-67
2022/01/06 00:39:44;;;;;;;19.20;3.72;;;4.90;99.90;;;;;;4162154;28;20086;-67
2022/01/06 00:41:45;;;;;;;12.02;3.03;;;4.90;99.90;;;;;;4160099;28;20045;-67
2022/01/06 00:43:46;;;;;;;16.73;3.67;;;4.90;99.90;;;;;;4161928;28;20396;-67
2022/01/06 00:45:46;;;;;;;13.13;3.67;;;4.90;99.90;;;;;;4159277;28;20033;-67
2022/01/06 00:47:47;;;;;;;12.35;3.60;;;4.90;99.90;;;;;;4162420;28;20053;-67
2022/01/06 00:49:47;;;;;;;14.55;3.08;;;4.90;99.90;;;;;;4160270;28;20495;-67
2022/01/06 00:51:48;;;;;;;17.83;4.32;;;4.80;99.90;;;;;;4161217;28;20051;-67
2022/01/06 00:53:49;;;;;;;19.48;3.78;;;4.90;99.90;;;;;;4158281;28;20041;-67
2022/01/06 00:55:50;;;;;;;9.07;2.63;;;4.90;99.90;;;;;;4157822;28;20044;-67
2022/01/06 00:57:55;;;;;;;12.88;3.28;;;4.90;99.90;;;;;;4161163;28;20087;-67
2022/01/06 00:59:55;;;;;;;13.68;2.72;;;4.90;99.90;;;;;;4161079;28;20072;-67
2022/01/06 01:01:56;;;;;;;16.92;3.30;;;4.90;99.90;;;;;;4160067;28;20034;-67
2022/01/06 01:03:57;;;;;;;14.15;3.13;;;5.00;99.90;;;;;;4159937;28;20037;-66
2022/01/06 01:05:58;;;;;;;13.27;3.17;;;4.90;99.90;;;;;;4161566;28;20030;-67
2022/01/06 01:07:59;;;;;;;16.20;4.00;;;4.90;99.90;;;;;;4160137;28;20076;-67
2022/01/06 01:09:59;;;;;;;16.92;3.95;;;4.90;99.90;;;;;;4146013;28;20038;-67
2022/01/06 01:12:02;;;;;;;11.00;3.33;;;4.80;99.90;;;;;;4158885;28;20497;-67
2022/01/06 01:14:17;;;;;;;17.75;3.70;;;4.80;99.90;;;;;;4161838;28;20036;-66
2022/01/06 01:16:24;;;;;;;15.48;3.65;;;4.90;99.90;;;;;;4157832;28;20044;-67
2022/01/06 01:18:25;;;;;;;12.43;3.08;;;4.80;99.90;;;;;;4160379;28;20040;-67
2022/01/06 01:20:26;;;;;;;13.15;3.22;;;4.90;99.90;;;;;;4158574;28;20116;-67
2022/01/06 01:22:26;;;;;;;17.27;3.83;;;4.80;99.90;;;;;;4161963;28;20037;-67
2022/01/06 01:24:27;;;;;;;20.20;4.20;;;4.80;99.90;;;;;;4161246;28;20117;-67
2022/01/06 01:26:28;;;;;;;10.57;2.63;;;4.80;99.90;;;;;;4159671;28;20473;-67
2022/01/06 01:28:33;;;;;;;10.73;3.10;;;4.80;99.90;;;;;;4160454;28;20037;-67
2022/01/06 01:30:42;;;;;;;13.77;3.15;;;4.80;99.90;;;;;;4158993;28;20511;-67
2022/01/06 01:32:50;;;;;;;14.70;3.00;;;4.70;99.90;;;;;;4157938;28;20065;-67
2022/01/06 01:34:59;;;;;;;9.73;3.22;;;4.70;99.90;;;;;;4159006;28;20040;-67
2022/01/06 01:36:59;;;;;;;21.83;3.40;;;4.70;99.90;;;;;;4158903;28;20129;-67
2022/01/06 01:39:00;;;;;;;14.38;3.65;;;4.70;99.90;;;;;;4162031;28;20030;-67
2022/01/06 01:41:01;;;;;;;12.60;3.17;;;4.60;99.90;;;;;;4157398;28;20041;-67
2022/01/06 01:43:01;;;;;;;18.60;3.60;;;4.60;99.90;;;;;;4160569;28;20049;-67
2022/01/06 01:45:04;;;;;;;20.90;3.65;;;4.50;99.90;;;;;;4161055;28;20110;-68
2022/01/06 01:47:13;;;;;;;20.02;3.70;;;4.50;99.90;;;;;;4161475;28;20036;-67
2022/01/06 01:51:24;;;;;;;18.35;3.42;;;4.50;99.90;;;;;;4160880;28;20072;-66
2022/01/06 01:53:25;;;;;;;11.35;3.15;;;4.50;99.90;;;;;;4163126;28;20426;-66
2022/01/06 01:55:32;;;;;;;16.85;3.17;;;4.50;99.90;;;;;;4163999;28;20068;-67
2022/01/06 01:57:33;;;;;;;13.98;3.25;;;4.50;99.90;;;;;;4162029;28;20052;-67
2022/01/06 01:59:34;;;;;;;12.73;2.75;;;4.50;99.90;;;;;;4164215;28;20041;-67
2022/01/06 02:01:34;;;;;;;11.73;3.20;;;4.50;99.90;;;;;;4160670;28;20056;-67
2022/01/06 02:03:35;;;;;;;15.25;2.78;;;4.60;99.90;;;;;;4163446;28;20091;-67
2022/01/06 02:05:35;;;;;;;12.73;3.38;;;4.60;99.90;;;;;;4162015;28;20136;-67
2022/01/06 02:07:39;;;;;;;15.15;3.08;;;4.60;99.90;;;;;;4162269;28;20058;-67
2022/01/06 02:09:41;;;;;;;14.23;3.60;;;4.60;99.90;;;;;;4161297;28;20048;-67
2022/01/06 02:11:41;;;;;;;12.40;2.90;;;4.70;99.90;;;;;;4161653;28;20416;-68
2022/01/06 02:13:49;;;;;;;12.98;2.80;;;4.70;99.90;;;;;;4163692;28;20037;-67
2022/01/06 02:15:50;;;;;;;11.35;2.95;;;4.60;99.90;;;;;;4162393;28;20156;-67
2022/01/06 02:17:51;;;;;;;14.20;3.10;;;4.70;99.90;;;;;;4162455;28;20537;-66
2022/01/06 02:20:15;;;;;;;10.27;3.00;;;4.70;99.90;;;;;;4163691;28;20484;-67
2022/01/06 02:22:15;;;;;;;11.75;2.90;;;4.70;99.90;;;;;;4160320;28;20037;-67
2022/01/06 02:24:16;;;;;;;15.15;2.72;;;4.70;99.90;;;;;;4163871;28;20353;-67
2022/01/06 02:26:17;;;;;;;16.08;3.13;;;4.70;99.90;;;;;;4160904;28;20079;-67
2022/01/06 02:28:19;;;;;;;11.35;2.90;;;4.70;99.90;;;;;;4162537;28;20033;-67
2022/01/06 02:30:22;;;;;;;15.43;3.17;;;4.70;99.90;;;;;;4162869;28;20030;-67
2022/01/06 02:32:23;;;;;;;19.60;3.50;;;4.70;99.90;;;;;;4163526;28;20040;-67
2022/01/06 02:34:23;;;;;;;13.63;3.30;;;4.70;99.90;;;;;;4163174;28;20041;-67
2022/01/06 02:36:24;;;;;;;16.13;3.35;;;4.70;99.90;;;;;;4162818;28;20138;-67
2022/01/06 02:38:25;;;;;;;12.73;2.88;;;4.70;99.90;;;;;;4163883;28;20042;-67
2022/01/06 02:40:26;;;;;;;14.85;2.90;;;4.70;99.90;;;;;;4162159;28;20037;-67
2022/01/06 02:42:29;;;;;;;19.40;3.78;;;4.70;99.90;;;;;;4162730;28;20542;-67
2022/01/06 02:44:29;;;;;;;19.55;3.30;;;4.70;99.90;;;;;;4146980;28;20485;-67
2022/01/06 02:46:30;;;;;;;11.52;2.80;;;4.60;99.90;;;;;;4163901;28;20038;-67
2022/01/06 02:48:31;;;;;;;15.77;3.38;;;4.60;99.90;;;;;;4163241;28;20048;-67
2022/01/06 02:50:31;;;;;;;9.43;2.55;;;4.60;99.90;;;;;;4161471;28;20034;-67
2022/01/06 02:52:33;;;;;;;22.85;3.65;;;4.50;99.90;;;;;;4162221;28;20104;-67
2022/01/06 02:54:34;;;;;;;13.40;3.47;;;4.50;99.90;;;;;;4162382;28;20064;-65
2022/01/06 02:56:34;;;;;;;15.38;3.13;;;4.50;99.90;;;;;;4159094;28;20038;-67
2022/01/06 02:58:35;;;;;;;20.70;3.33;;;4.50;99.90;;;;;;4161725;28;20071;-67
2022/01/06 03:00:35;;;;;;;15.90;3.13;;;4.40;99.90;;;;;;4161564;28;20042;-67
2022/01/06 03:02:36;;;;;;;18.55;3.25;;;4.30;99.90;;;;;;4164256;28;20030;-67
2022/01/06 03:04:37;;;;;;;12.68;2.65;;;4.40;99.90;;;;;;4161680;28;20033;-67
2022/01/06 03:06:41;;;;;;;18.35;3.40;;;4.30;99.90;;;;;;4163091;28;20040;-67
2022/01/06 03:08:42;;;;;;;10.80;2.80;;;4.40;99.90;;;;;;4162529;28;20132;-67
2022/01/06 03:10:44;;;;;;;17.38;3.10;;;4.40;99.90;;;;;;4159783;28;20041;-68
2022/01/06 03:12:46;;;;;;;11.95;3.00;;;4.50;99.90;;;;;;4161313;28;20166;-67
2022/01/06 03:14:47;;;;;;;13.02;2.80;;;4.40;99.90;;;;;;4164107;28;20048;-67
2022/01/06 03:16:47;;;;;;;15.35;2.72;;;4.50;99.90;;;;;;4162291;28;20033;-67
2022/01/06 03:18:48;;;;;;;12.80;3.03;;;4.50;99.90;;;;;;4163827;28;20049;-67
2022/01/06 03:20:49;;;;;;;23.42;4.07;;;4.50;99.90;;;;;;4161546;28;20072;-67
2022/01/06 03:22:51;;;;;;;18.75;3.17;;;4.50;99.90;;;;;;4162963;28;20037;-67
2022/01/06 03:24:51;;;;;;;12.27;2.90;;;4.50;99.90;;;;;;4162224;28;20057;-67
2022/01/06 03:26:52;;;;;;;13.70;2.90;;;4.40;99.90;;;;;;4162705;28;20833;-67
2022/01/06 03:28:52;;;;;;;20.67;3.72;;;4.40;99.90;;;;;;4161803;28;20116;-67
2022/01/06 03:30:53;;;;;;;16.30;3.10;;;4.40;99.90;;;;;;4160250;28;20048;-68
2022/01/06 03:32:54;;;;;;;14.88;3.22;;;4.40;99.90;;;;;;4162880;28;20043;-67
2022/01/06 03:34:54;;;;;;;13.82;2.72;;;4.40;99.90;;;;;;4163465;28;20034;-67
2022/01/06 03:36:55;;;;;;;12.77;2.90;;;4.40;99.90;;;;;;4160280;28;20062;-67
2022/01/06 03:38:55;;;;;;;14.57;2.60;;;4.40;99.90;;;;;;4163046;28;20551;-67
2022/01/06 03:40:56;;;;;;;10.20;2.30;;;4.40;99.90;;;;;;4160475;28;20041;-67
2022/01/06 03:42:57;;;;;;;10.88;2.42;;;4.40;99.90;;;;;;4163631;28;20033;-67
2022/01/06 03:44:58;;;;;;;18.40;2.83;;;4.40;99.90;;;;;;4160162;28;20034;-67
2022/01/06 03:46:59;;;;;;;10.45;2.60;;;4.40;99.90;;;;;;4158690;28;20033;-67
2022/01/06 03:48:59;;;;;;;16.63;3.33;;;4.40;99.90;;;;;;4163602;28;20052;-67
2022/01/06 03:51:00;;;;;;;12.90;2.65;;;4.40;99.90;;;;;;4162077;28;20042;-67
2022/01/06 03:53:01;;;;;;;15.05;3.00;;;4.40;99.90;;;;;;4161948;28;20048;-67
2022/01/06 03:55:04;;;;;;;11.00;2.35;;;4.40;99.90;;;;;;4162694;28;20041;-67
2022/01/06 03:57:04;;;;;;;13.35;2.50;;;4.40;99.90;;;;;;4159978;28;20119;-67
2022/01/06 03:59:05;;;;;;;11.40;2.75;;;4.50;99.90;;;;;;4162286;28;20539;-67
2022/01/06 04:01:07;;;;;;;15.85;3.10;;;4.40;99.90;;;;;;4159200;28;20128;-67
2022/01/06 04:03:08;;;;;;;16.23;2.67;;;4.40;99.90;;;;;;4162466;28;20623;-67
2022/01/06 04:05:10;;;;;;;13.27;3.03;;;4.40;99.90;;;;;;4161330;28;20034;-67
2022/01/06 04:07:10;;;;;;;16.88;3.20;;;4.40;99.90;;;;;;4162240;28;20045;-67
2022/01/06 04:09:11;;;;;;;13.48;3.00;;;4.40;99.90;;;;;;4161365;28;20713;-67
2022/01/06 04:11:12;;;;;;;12.02;2.45;;;4.40;99.90;;;;;;4161610;28;20056;-67
2022/01/06 04:13:12;;;;;;;15.95;2.95;;;4.40;99.90;;;;;;4161538;28;20057;-67
2022/01/06 04:15:13;;;;;;;8.82;2.35;;;4.40;99.90;;;;;;4160797;28;20116;-68
2022/01/06 04:17:14;;;;;;;12.30;2.63;;;4.40;99.90;;;;;;4161315;28;20444;-68
2022/01/06 04:19:15;;;;;;;16.05;3.58;;;4.40;99.90;;;;;;4162133;28;20033;-68
2022/01/06 04:21:15;;;;;;;14.50;3.13;;;4.40;99.90;;;;;;4160927;28;20123;-67
2022/01/06 04:23:16;;;;;;;13.77;3.30;;;4.40;99.90;;;;;;4160952;28;20061;-67
2022/01/06 04:25:16;;;;;;;11.50;2.58;;;4.40;99.90;;;;;;4161199;28;20030;-67
2022/01/06 04:27:17;;;;;;;11.20;2.58;;;4.40;99.90;;;;;;4162480;28;20032;-67
2022/01/06 04:29:18;;;;;;;8.48;2.45;;;4.40;99.90;;;;;;4161285;28;20036;-67
2022/01/06 04:31:18;;;;;;;12.00;2.75;;;4.40;99.90;;;;;;4159537;28;20053;-67
2022/01/06 04:33:19;;;;;;;12.63;2.25;;;4.40;99.90;;;;;;4161003;28;20103;-67
2022/01/06 04:35:20;;;;;;;11.18;2.75;;;4.30;99.90;;;;;;4160325;28;20037;-67
2022/01/06 04:37:20;;;;;;;10.85;2.65;;;4.40;99.90;;;;;;4162894;28;20492;-67
2022/01/06 04:39:21;;;;;;;12.68;3.10;;;4.30;99.90;;;;;;4160047;28;20092;-67
2022/01/06 04:41:22;;;;;;;7.80;2.10;;;4.30;99.90;;;;;;4161386;28;20034;-67
2022/01/06 04:43:23;;;;;;;10.75;3.53;;;4.30;99.90;;;;;;4159441;28;20034;-67
2022/01/06 04:45:23;;;;;;;15.13;3.47;;;4.30;99.90;;;;;;4161534;28;20087;-67
2022/01/06 04:47:24;;;;;;;18.05;3.47;;;4.30;99.90;;;;;;4160556;28;20179;-67
2022/01/06 04:49:25;;;;;;;14.88;3.30;;;4.30;99.90;;;;;;4163038;28;20492;-67
2022/01/06 04:51:25;;;;;;;20.05;2.85;;;4.30;99.90;;;;;;4157180;28;20050;-67
2022/01/06 04:53:26;;;;;;;11.13;2.70;;;4.20;99.90;;;;;;4162521;28;20033;-67
2022/01/06 04:55:26;;;;;;;10.85;2.53;;;4.20;99.90;;;;;;4160897;28;20041;-67
2022/01/06 04:57:27;;;;;;;11.40;2.53;;;4.20;99.90;;;;;;4162402;28;20497;-67
2022/01/06 04:59:27;;;;;;;12.57;2.83;;;4.20;99.90;;;;;;4159515;28;20041;-67
2022/01/06 05:01:28;;;;;;;11.32;2.60;;;4.20;99.90;;;;;;4160499;28;20049;-67
2022/01/06 05:03:29;;;;;;;8.40;2.28;;;4.20;99.90;;;;;;4161307;28;20764;-67
2022/01/06 05:05:29;;;;;;;13.60;2.80;;;4.20;99.90;;;;;;4159715;28;20045;-67
2022/01/06 05:07:32;;;;;;;12.93;3.38;;;4.20;99.90;;;;;;4158498;28;20068;-67
2022/01/06 05:09:32;;;;;;;13.45;2.75;;;4.20;99.90;;;;;;4160950;28;20147;-67
2022/01/06 05:11:33;;;;;;;12.32;3.35;;;4.20;99.90;;;;;;4161276;28;20512;-67
2022/01/06 05:13:34;;;;;;;14.35;2.83;;;4.10;99.90;;;;;;4160565;28;20045;-67
2022/01/06 05:15:34;;;;;;;15.55;3.45;;;4.10;99.90;;;;;;4161385;28;20034;-67
2022/01/06 05:17:35;;;;;;;14.60;3.38;;;4.00;99.90;;;;;;4160605;28;20517;-67
2022/01/06 05:19:36;;;;;;;20.10;3.47;;;4.00;99.90;;;;;;4162153;28;20417;-67
2022/01/06 05:21:37;;;;;;;11.02;2.63;;;4.00;99.90;;;;;;4159809;28;20045;-67
2022/01/06 05:23:39;;;;;;;10.63;2.33;;;4.00;99.90;;;;;;4161542;28;20366;-67
2022/01/06 05:25:40;;;;;;;13.43;2.50;;;4.00;99.90;;;;;;4159772;28;20060;-67
2022/01/06 05:27:40;;;;;;;11.10;3.33;;;4.00;99.90;;;;;;4161416;28;20037;-67
2022/01/06 05:29:41;;;;;;;14.65;2.70;;;4.10;99.90;;;;;;4160929;28;20034;-67
2022/01/06 05:31:42;;;;;;;15.43;3.08;;;4.00;99.90;;;;;;4161118;28;20519;-67
2022/01/06 05:33:42;;;;;;;8.15;2.63;;;4.10;99.90;;;;;;4160892;28;20029;-67
2022/01/06 05:35:43;;;;;;;9.07;2.35;;;4.10;99.90;;;;;;4159346;28;20036;-67
2022/01/06 05:37:44;;;;;;;9.60;2.75;;;4.10;99.90;;;;;;4157995;28;20431;-68
2022/01/06 05:39:45;;;;;;;12.15;2.60;;;4.10;99.90;;;;;;4158982;28;20045;-68
2022/01/06 05:41:46;;;;;;;11.68;2.90;;;4.10;99.90;;;;;;4161236;28;20092;-67
2022/01/06 05:43:47;;;;;;;14.20;3.40;;;4.10;99.90;;;;;;4145378;28;20156;-67
2022/01/06 05:45:51;;;;;;;10.00;2.78;;;4.10;99.90;;;;;;4159788;28;20034;-67
2022/01/06 05:47:52;;;;;;;12.38;2.67;;;4.00;99.90;;;;;;4161216;28;20076;-67
2022/01/06 05:49:53;;;;;;;12.38;3.20;;;4.10;99.90;;;;;;4159244;28;20037;-67
2022/01/06 05:51:53;;;;;;;12.57;3.05;;;4.10;99.90;;;;;;4157332;28;20472;-67
2022/01/06 05:53:54;;;;;;;12.57;3.20;;;4.00;99.90;;;;;;4159818;28;20046;-67
2022/01/06 05:55:54;;;;;;;9.13;2.22;;;4.00;99.90;;;;;;4159865;28;20037;-67
2022/01/06 05:57:55;;;;;;;10.27;2.80;;;4.00;99.90;;;;;;4162164;28;20480;-67
2022/01/06 05:59:55;;;;;;;15.63;3.42;;;4.10;99.90;;;;;;4158799;28;20039;-67
2022/01/06 06:01:56;;;;;;;16.25;3.65;;;4.10;99.90;;;;;;4157415;28;20037;-67
2022/01/06 06:03:56;;;;;;;9.40;2.47;;;4.00;99.90;;;;;;4159455;28;20069;-67
2022/01/06 06:05:57;;;;;;;11.25;3.20;;;4.00;99.90;;;;;;4157311;28;20046;-67
2022/01/06 06:07:58;;;;;;;12.98;3.05;;;4.00;99.90;;;;;;4159383;28;20037;-67
2022/01/06 06:09:58;;;;;;;8.55;2.60;;;3.90;99.90;;;;;;4159933;28;20473;-67
2022/01/06 06:11:59;;;;;;;12.05;3.13;;;4.00;99.90;;;;;;4156089;28;20048;-67
2022/01/06 06:13:59;;;;;;;12.55;2.90;;;3.90;99.90;;;;;;4160439;28;20091;-67
2022/01/06 06:16:00;;;;;;;11.52;2.72;;;3.90;99.90;;;;;;4160678;28;20498;-67
2022/01/06 06:18:05;;;;;;;11.65;3.10;;;3.90;99.90;;;;;;4160831;28;20431;-67
2022/01/06 06:20:06;;;;;;;14.05;2.88;;;3.90;99.90;;;;;;4157990;28;20038;-68
2022/01/06 06:22:07;;;;;;;12.13;2.95;;;3.90;99.90;;;;;;4159408;28;20414;-67
2022/01/06 06:24:07;;;;;;;16.17;3.13;;;3.90;99.90;;;;;;4160729;28;20053;-67
2022/01/06 06:26:08;;;;;;;10.82;3.03;;;3.90;99.90;;;;;;4158029;28;20386;-68
2022/01/06 06:28:09;;;;;;;14.57;3.10;;;3.90;99.90;;;;;;4162498;28;20048;-67
2022/01/06 06:30:10;;;;;;;14.50;2.92;;;4.00;99.90;;;;;;4159334;28;20388;-69
2022/01/06 06:32:11;;;;;;;8.30;2.60;;;4.00;99.90;;;;;;4164833;28;20095;-68
2022/01/06 06:34:12;;;;;;;11.73;3.08;;;4.00;99.90;;;;;;4161236;28;20042;-68
2022/01/06 06:36:13;;;;;;;9.85;2.42;;;4.00;99.90;;;;;;4155891;28;20554;-68
2022/01/06 06:38:13;;;;;;;11.93;2.92;;;4.00;99.90;;;;;;4126860;28;20080;-68
2022/01/06 06:40:14;;;;;;;12.13;3.10;;;4.00;99.90;;;;;;4162963;28;20045;-68
2022/01/06 06:42:15;;;;;;;13.23;2.63;;;4.00;99.90;;;;;;4145041;28;20041;-67
2022/01/06 06:44:16;;;;;;;15.32;3.45;;;4.00;99.90;;;;;;4167790;28;20531;-68
2022/01/06 06:46:17;;;;;;;14.07;3.05;;;4.00;99.90;;;;;;4162033;28;20392;-68
2022/01/06 06:48:25;;;;;;;15.27;3.53;;;4.00;99.90;;;;;;4164085;28;20041;-68
2022/01/06 06:50:26;;;;;;;13.57;3.25;;;4.00;99.90;;;;;;4161315;28;20491;-68
2022/01/06 06:52:27;;;;;;;15.95;3.40;;;4.00;99.90;;;;;;4165964;28;20041;-67
2022/01/06 06:54:31;;;;;;;11.88;3.20;;;4.00;99.90;;;;;;4162291;28;20091;-67
2022/01/06 06:56:32;;;;;;;10.88;3.17;;;4.00;99.90;;;;;;4134416;28;20026;-68
2022/01/06 06:58:36;;;;;;;15.50;3.10;;;4.00;99.90;;;;;;4162997;28;20030;-68
2022/01/06 07:00:36;;;;;;;11.25;3.00;;;4.10;99.90;;;;;;4160236;28;20124;-68
2022/01/06 07:02:37;;;;;;;13.13;3.50;;;4.10;99.90;;;;;;4163496;28;20048;-68
2022/01/06 07:04:38;;;;;;;10.13;2.95;;;4.10;99.90;;;;;;4164137;28;20397;-68
2022/01/06 07:06:39;;;;;;;15.40;3.30;;;4.10;99.90;;;;;;4165782;28;20034;-68
2022/01/06 07:08:40;;;;;;;15.55;3.22;;;4.10;99.90;;;;;;4163249;28;20103;-68
2022/01/06 07:10:40;;;;;;;17.42;3.55;;;4.20;99.90;;;;;;4165348;28;20045;-68
2022/01/06 07:12:43;;;;;;;9.48;3.28;;;4.20;99.90;;;;;;4165086;28;20042;-68
2022/01/06 07:14:44;;;;;;;11.68;3.03;;;4.20;99.90;;;;;;4167651;28;20033;-68
2022/01/06 07:16:45;;;;;;;10.93;3.20;;;4.20;99.90;;;;;;4163644;28;20124;-68
2022/01/06 07:18:45;;;;;;;10.02;2.88;;;4.20;99.90;;;;;;4162411;28;20037;-69
2022/01/06 07:20:46;;;;;;;9.30;2.72;;;4.20;99.90;;;;;;4163861;28;20376;-69
2022/01/06 07:22:47;;;;;;;7.78;2.45;;;4.20;99.90;;;;;;4165751;28;20505;-68
2022/01/06 07:24:47;;;;;;;11.18;2.72;;;4.20;99.90;;;;;;4166689;28;20033;-68
2022/01/06 07:26:48;;;;;;;11.35;2.88;;;4.20;99.90;;;;;;4167679;28;20042;-69
2022/01/06 07:28:49;;;;;;;11.27;3.08;;;4.30;99.90;;;;;;4169567;28;20064;-69
2022/01/06 07:30:49;;;;;;;10.63;2.90;;;4.30;99.90;;;;;;4163851;28;20033;-68
2022/01/06 07:32:51;;;;;;;10.93;2.70;;;4.30;99.90;;;;;;4165046;28;20034;-68
2022/01/06 07:34:52;;;;;;;9.18;2.60;;;4.30;99.90;;;;;;4165351;28;20385;-68
2022/01/06 07:36:53;;;;;;;8.65;2.42;;;4.30;99.90;;;;;;4153216;28;20041;-69
2022/01/06 07:38:53;;;;;;;10.80;2.70;;;4.30;99.90;;;;;;4164882;28;20076;-69
2022/01/06 07:40:55;;;;;;;12.00;2.78;;;4.30;99.90;;;;;;4167570;28;20037;-69
2022/01/06 07:42:59;;;;;;;9.45;3.25;;;4.30;99.90;;;;;;4161186;28;20073;-68
2022/01/06 07:45:00;;;;;;;14.07;2.97;;;4.30;99.90;;;;;;4163430;28;20076;-68
2022/01/06 07:47:00;;;;;;;14.82;2.63;;;4.30;99.90;;;;;;4161628;28;20064;-68
2022/01/06 07:49:03;;;;;;;9.05;2.58;;;4.30;99.90;;;;;;4164822;28;20052;-68
2022/01/06 07:51:04;;;;;;;10.50;2.45;;;4.20;99.90;;;;;;4162549;28;20068;-68
2022/01/06 07:53:04;;;;;;;8.10;2.67;;;4.30;99.90;;;;;;4161079;28;20698;-68
2022/01/06 07:55:05;;;;;;;7.03;2.22;;;4.30;99.90;;;;;;4165501;28;20069;-69
2022/01/06 07:57:06;;;;;;;9.18;3.03;;;4.30;99.90;;;;;;4165469;28;20436;-68
2022/01/06 07:59:09;;;;;;;8.95;2.78;;;4.30;99.90;;;;;;4166458;28;20080;-68
2022/01/06 08:01:10;;;;;;;11.32;3.08;;;4.30;99.90;;;;;;4166046;28;20140;-69
2022/01/06 08:03:11;;;;;;;13.00;3.17;;;4.30;99.90;;;;;;4168683;28;20033;-68
2022/01/06 08:05:14;;;;;;;8.82;2.67;;;4.30;99.90;;;;;;4163146;28;20038;-69
2022/01/06 08:07:14;;;;;;;15.23;2.53;;;4.40;99.90;;;;;;4150634;28;20056;-69
2022/01/06 08:09:15;;;;;;;10.43;2.85;;;4.30;99.90;;;;;;4147671;28;20061;-69
2022/01/06 08:11:15;;;;;;;12.05;3.20;;;4.30;99.90;;;;;;4164637;28;20046;-69
2022/01/06 08:13:16;;;;;;;10.13;3.33;;;4.40;99.90;;;;;;4168195;28;20104;-69
2022/01/06 08:15:17;;;;;;;10.20;2.80;;;4.30;99.90;;;;;;4169890;28;20060;-69
2022/01/06 08:17:17;;;;;;;15.10;3.50;;;4.40;99.90;;;;;;4168175;28;20045;-69
2022/01/06 08:19:18;;;;;;;13.25;3.22;;;4.30;99.90;;;;;;4165190;28;20033;-69
2022/01/06 08:21:19;;;;;;;13.70;3.10;;;4.30;99.90;;;;;;4165450;28;20049;-68
2022/01/06 08:23:19;;;;;;;12.13;3.28;;;4.30;99.90;;;;;;4167696;28;20048;-69
2022/01/06 08:25:20;;;;;;;10.48;3.30;;;4.40;99.90;;;;;;4163635;28;20165;-69
2022/01/06 08:27:23;;;;;;;7.07;2.58;;;4.40;99.90;;;;;;4170443;28;20038;-69
2022/01/06 08:29:23;;;;;;;9.02;2.65;;;4.40;99.90;;;;;;4166035;28;20465;-69
2022/01/06 08:31:24;;;;;;;4.70;2.42;;;4.40;99.90;;;;;;4163916;28;20065;-69
2022/01/06 08:33:25;;;;;;;7.20;2.50;;;4.50;99.90;;;;;;4166560;28;20284;-69
2022/01/06 08:35:26;;;;;;;12.15;2.92;;;4.50;99.90;;;;;;4163387;28;20040;-69
2022/01/06 08:37:27;;;;;;;8.07;2.03;;;4.50;99.90;;;;;;4165718;28;20392;-68
2022/01/06 08:39:27;;;;;;;10.23;2.95;;;4.50;99.90;;;;;;4165964;28;20037;-68
2022/01/06 08:41:28;;;;;;;11.55;2.78;;;4.60;99.90;;;;;;4165235;28;20049;-68
2022/01/06 08:43:29;;;;;;;5.35;2.08;;;4.60;99.90;;;;;;4164833;28;20029;-69
2022/01/06 08:45:32;;;;;;;8.45;2.47;;;4.60;99.90;;;;;;4165733;28;20037;-69
2022/01/06 08:47:33;;;;;;;9.20;2.78;;;4.60;99.90;;;;;;4147101;28;20400;-69
2022/01/06 08:49:34;;;;;;;10.75;2.65;;;4.70;99.90;;;;;;4163875;28;20047;-69
2022/01/06 08:51:35;;;;;;;9.85;2.80;;;4.70;99.90;;;;;;4167132;28;20045;-69
2022/01/06 08:53:35;;;;;;;12.13;3.03;;;4.70;99.90;;;;;;4166037;28;20043;-69
2022/01/06 08:55:36;;;;;;;8.35;2.88;;;4.80;99.90;;;;;;4161535;28;20041;-69
2022/01/06 08:57:37;;;;;;;10.68;2.95;;;4.70;99.90;;;;;;4165405;28;20408;-69
2022/01/06 08:59:38;;;;;;;10.32;3.25;;;4.80;99.90;;;;;;4164128;28;20060;-69
2022/01/06 09:01:38;;;;;;;14.25;3.42;;;4.80;99.90;;;;;;4166505;28;20041;-69
2022/01/06 09:03:39;;;;;;;14.07;3.38;;;4.80;99.90;;;;;;4166519;28;20053;-69
2022/01/06 09:05:40;;;;;;;8.88;3.05;;;4.80;99.90;;;;;;4163322;28;20109;-66
2022/01/06 09:07:41;;;;;;;7.78;2.63;;;4.80;99.90;;;;;;4165363;28;20049;-69
2022/01/06 09:09:42;;;;;;;7.13;2.80;;;4.90;99.90;;;;;;4167466;28;20057;-67
2022/01/06 09:11:43;;;;;;;8.10;2.80;;;4.90;99.90;;;;;;4167873;28;20040;-67
2022/01/06 09:13:43;;;;;;;9.70;3.03;;;4.90;99.90;;;;;;4164776;28;20376;-67
2022/01/06 09:15:44;;;;;;;9.02;2.80;;;5.00;99.90;;;;;;4162937;28;20037;-66
2022/01/06 09:17:44;;;;;;;11.52;3.72;;;5.00;99.90;;;;;;4164742;28;20420;-66
2022/01/06 09:19:45;;;;;;;11.77;2.78;;;5.00;99.90;;;;;;4164727;28;20412;-66
2022/01/06 09:21:46;;;;;;;10.90;3.17;;;5.10;99.90;;;;;;4164947;28;20061;-66
2022/01/06 09:23:46;;;;;;;11.40;2.78;;;5.10;99.90;;;;;;4165362;28;20480;-69
2022/01/06 09:25:47;;;;;;;16.90;3.90;;;5.10;99.90;;;;;;4167455;28;20061;-67
2022/01/06 09:27:47;;;;;;;10.75;3.10;;;5.10;99.90;;;;;;4165732;28;20087;-68
2022/01/06 09:29:48;;;;;;;9.65;3.17;;;5.20;99.90;;;;;;4166887;28;20034;-67
2022/01/06 09:31:49;;;;;;;11.07;3.15;;;5.10;99.90;;;;;;4161589;28;20698;-67
2022/01/06 09:33:49;;;;;;;13.90;2.90;;;5.20;99.90;;;;;;4164981;28;20044;-67
2022/01/06 09:35:53;;;;;;;9.75;3.17;;;5.30;99.90;;;;;;4166912;28;20034;-68
2022/01/06 09:37:53;;;;;;;13.18;2.95;;;5.40;99.90;;;;;;4149980;28;20454;-67
2022/01/06 09:39:54;;;;;;;9.82;2.67;;;5.50;99.90;;;;;;4154199;28;20036;-70
2022/01/06 09:41:55;;;;;;;12.40;3.22;;;5.80;99.90;;;;;;4164727;28;20045;-67
2022/01/06 09:43:57;;;;;;;8.55;2.92;;;6.00;99.90;;;;;;4166045;28;20037;-67
2022/01/06 09:46:02;;;;;;;12.60;3.15;;;6.20;99.90;;;;;;4167474;28;20479;-67
2022/01/06 09:48:04;;;;;;;11.50;2.55;;;6.30;99.90;;;;;;4165414;28;20029;-67
2022/01/06 09:50:07;;;;;;;9.57;3.17;;;6.40;99.90;;;;;;4163977;28;20061;-67
2022/01/06 09:52:09;;;;;;;12.65;2.92;;;6.50;99.90;;;;;;4164010;28;20365;-67
2022/01/06 09:54:09;;;;;;;9.25;3.13;;;6.50;99.90;;;;;;4170348;28;20049;-68
2022/01/06 09:56:10;;;;;;;6.10;2.50;;;6.50;99.90;;;;;;4166637;28;20487;-67
2022/01/06 09:58:11;;;;;;;12.93;3.00;;;6.60;99.90;;;;;;4163056;28;20056;-67
2022/01/06 10:00:13;;;;;;;11.40;2.88;;;6.70;99.90;;;;;;4162954;28;20033;-67
2022/01/06 10:02:17;;;;;;;8.52;2.65;;;6.70;99.90;;;;;;4164723;28;20050;-67
2022/01/06 10:04:27;;;;;;;9.93;3.08;;;6.70;99.90;;;;;;4163503;28;20116;-67
2022/01/06 10:06:28;;;;;;;10.55;2.60;;;6.70;99.90;;;;;;4163302;28;20038;-67
2022/01/06 10:08:29;;;;;;;8.30;2.83;;;6.70;99.90;;;;;;4164201;28;20061;-67
2022/01/06 10:10:30;;;;;;;8.25;2.50;;;6.70;99.90;;;;;;4164994;28;20052;-67
2022/01/06 10:12:30;;;;;;;13.38;2.80;;;6.70;99.90;;;;;;4166760;28;20142;-66
2022/01/06 10:14:46;;;;;;;9.13;2.70;;;6.70;99.90;;;;;;4167002;28;20038;-67
2022/01/06 10:16:50;;;;;;;8.38;3.22;;;6.70;99.90;;;;;;4163307;28;20041;-66
2022/01/06 10:18:54;;;;;;;12.63;3.13;;;6.60;99.90;;;;;;4166775;28;20066;-67
2022/01/06 10:20:55;;;;;;;12.40;2.92;;;6.60;99.90;;;;;;4166358;28;20035;-67
2022/01/06 10:22:57;;;;;;;8.73;2.70;;;6.60;99.90;;;;;;4171436;28;20064;-67
2022/01/06 10:25:07;;;;;;;11.18;3.03;;;6.60;99.90;;;;;;4164266;28;20472;-67
2022/01/06 10:27:09;;;;;;;7.63;2.10;;;6.60;99.90;;;;;;4167805;28;20533;-67
2022/01/06 10:29:10;;;;;;;8.40;2.45;;;6.70;99.90;;;;;;4167461;28;20048;-66
2022/01/06 10:31:15;;;;;;;10.05;2.85;;;6.70;99.90;;;;;;4168103;28;20049;-66
2022/01/06 10:33:17;;;;;;;10.18;3.10;;;6.70;99.90;;;;;;4150960;28;20097;-67
2022/01/06 10:35:20;;;;;;;9.93;2.90;;;6.70;99.90;;;;;;4153332;28;20126;-67
2022/01/06 10:37:25;;;;;;;11.13;2.95;;;6.80;99.90;;;;;;4168520;28;20086;-67
2022/01/06 10:39:27;;;;;;;9.85;2.58;;;6.70;99.90;;;;;;4167920;28;20036;-67
2022/01/06 10:41:28;;;;;;;8.20;2.80;;;6.80;99.90;;;;;;4166116;28;20128;-67
2022/01/06 10:43:33;;;;;;;5.88;2.33;;;6.80;99.90;;;;;;4167098;28;20370;-66